sensor_id;sensor_type;location;lat;lon;timestamp;temperature;humidity
20366;DHT22;10341;49.894;8.822;2023-08-24T00:03:16;16.60;99.90
20366;DHT22;10341;49.894;8.822;2023-08-24T00:08:36;16.50;99.90
20366;DHT22;10341;49.894;8.822;2023-08-24T00:13:57;16.50;99.90
20366;DHT22;10341;49.894;8.822;2023-08-24T00:19:17;16.50;99.90
20366;DHT22;10341;49.894;8.822;2023-08-24T00:24:36;16.40;99.90
20366;DHT22;10341;49.894;8.822;2023-08-24T00:29:55;16.40;99.90
20366;DHT22;10341;49.894;8.822;2023-08-24T00:35:15;16.40;99.90
20366;DHT22;10341;49.894;8.822;2023-08-24T00:40:35;16.30;99.90
20366;DHT22;10341;49.894;8.822;2023-08-24T00:46:00;16.20;99.90
20366;DHT22;10341;49.894;8.822;2023-08-24T00:51:20;16.30;99.90
20366;DHT22;10341;49.894;8.822;2023-08-24T00:56:40;16.20;99.90
20366;DHT22;10341;49.894;8.822;2023-08-24T01:01:59;16.20;99.90
20366;DHT22;10341;49.894;8.822;2023-08-24T01:07:20;16.10;99.90
20366;DHT22;10341;49.894;8.822;2023-08-24T01:13:02;16.00;99.90
20366;DHT22;10341;49.894;8.822;2023-08-24T01:18:28;16.00;99.90
20366;DHT22;10341;49.894;8.822;2023-08-24T01:29:14;16.00;99.90
20366;DHT22;10341;49.894;8.822;2023-08-24T01:34:37;16.00;99.90
20366;DHT22;10341;49.894;8.822;2023-08-24T01:40:20;15.90;99.90
20366;DHT22;10341;49.894;8.822;2023-08-24T01:45:37;15.90;99.90
20366;DHT22;10341;49.894;8.822;2023-08-24T01:50:57;15.90;99.90
20366;DHT22;10341;49.894;8.822;2023-08-24T01:56:17;15.80;99.90
20366;DHT22;10341;49.894;8.822;2023-08-24T02:01:36;15.80;99.90
20366;DHT22;10341;49.894;8.822;2023-08-24T02:06:56;15.70;99.90
20366;DHT22;10341;49.894;8.822;2023-08-24T02:12:17;15.70;99.90
20366;DHT22;10341;49.894;8.822;2023-08-24T02:17:37;15.60;99.90
20366;DHT22;10341;49.894;8.822;2023-08-24T02:22:56;15.60;99.90
20366;DHT22;10341;49.894;8.822;2023-08-24T02:28:15;15.50;99.90
20366;DHT22;10341;49.894;8.822;2023-08-24T02:33:35;15.50;99.90
20366;DHT22;10341;49.894;8.822;2023-08-24T02:38:55;15.60;99.90
20366;DHT22;10341;49.894;8.822;2023-08-24T02:44:15;15.70;99.90
20366;DHT22;10341;49.894;8.822;2023-08-24T02:49:35;15.70;99.90
20366;DHT22;10341;49.894;8.822;2023-08-24T02:54:56;15.80;99.90
20366;DHT22;10341;49.894;8.822;2023-08-24T03:00:15;15.80;99.90
20366;DHT22;10341;49.894;8.822;2023-08-24T03:05:35;15.80;99.90
20366;DHT22;10341;49.894;8.822;2023-08-24T03:10:54;15.80;99.90
20366;DHT22;10341;49.894;8.822;2023-08-24T03:16:14;15.80;99.90
20366;DHT22;10341;49.894;8.822;2023-08-24T03:21:34;15.80;99.90
20366;DHT22;10341;49.894;8.822;2023-08-24T03:26:53;15.80;99.90
20366;DHT22;10341;49.894;8.822;2023-08-24T03:32:13;16.00;99.90
20366;DHT22;10341;49.894;8.822;2023-08-24T03:37:33;16.10;99.90
20366;DHT22;10341;49.894;8.822;2023-08-24T03:42:53;16.10;99.90
20366;DHT22;10341;49.894;8.822;2023-08-24T03:48:12;16.20;99.90
20366;DHT22;10341;49.894;8.822;2023-08-24T03:53:32;16.30;99.90
20366;DHT22;10341;49.894;8.822;2023-08-24T03:58:51;16.30;99.90
20366;DHT22;10341;49.894;8.822;2023-08-24T04:04:11;16.30;99.90
20366;DHT22;10341;49.894;8.822;2023-08-24T04:09:30;16.40;99.90
20366;DHT22;10341;49.894;8.822;2023-08-24T04:14:50;16.50;99.90
20366;DHT22;10341;49.894;8.822;2023-08-24T04:20:13;16.60;99.90
20366;DHT22;10341;49.894;8.822;2023-08-24T04:25:32;16.60;99.90
20366;DHT22;10341;49.894;8.822;2023-08-24T04:30:53;16.60;99.90
20366;DHT22;10341;49.894;8.822;2023-08-24T04:36:13;16.60;99.90
20366;DHT22;10341;49.894;8.822;2023-08-24T04:41:32;16.70;99.90
20366;DHT22;10341;49.894;8.822;2023-08-24T04:46:52;16.70;99.90
20366;DHT22;10341;49.894;8.822;2023-08-24T04:52:12;16.70;99.90
20366;DHT22;10341;49.894;8.822;2023-08-24T04:57:31;16.70;99.90
20366;DHT22;10341;49.894;8.822;2023-08-24T05:02:51;16.80;99.90
20366;DHT22;10341;49.894;8.822;2023-08-24T05:08:10;16.80;99.90
20366;DHT22;10341;49.894;8.822;2023-08-24T05:13:30;16.80;99.90
20366;DHT22;10341;49.894;8.822;2023-08-24T05:18:50;17.00;99.90
20366;DHT22;10341;49.894;8.822;2023-08-24T05:24:09;17.00;99.90
20366;DHT22;10341;49.894;8.822;2023-08-24T05:29:29;17.10;99.90
20366;DHT22;10341;49.894;8.822;2023-08-24T05:34:49;17.30;99.90
20366;DHT22;10341;49.894;8.822;2023-08-24T05:40:08;17.40;99.90
20366;DHT22;10341;49.894;8.822;2023-08-24T05:45:28;17.50;99.90
20366;DHT22;10341;49.894;8.822;2023-08-24T05:50:47;17.50;99.90
20366;DHT22;10341;49.894;8.822;2023-08-24T05:56:07;17.60;99.90
20366;DHT22;10341;49.894;8.822;2023-08-24T06:01:27;17.80;99.90
20366;DHT22;10341;49.894;8.822;2023-08-24T06:06:46;17.90;99.90
20366;DHT22;10341;49.894;8.822;2023-08-24T06:12:06;18.10;99.90
20366;DHT22;10341;49.894;8.822;2023-08-24T06:17:26;18.40;99.90
20366;DHT22;10341;49.894;8.822;2023-08-24T06:22:45;18.80;99.90
20366;DHT22;10341;49.894;8.822;2023-08-24T06:28:05;19.20;99.90
20366;DHT22;10341;49.894;8.822;2023-08-24T06:33:28;19.40;99.90
20366;DHT22;10341;49.894;8.822;2023-08-24T06:38:50;19.70;99.90
20366;DHT22;10341;49.894;8.822;2023-08-24T06:44:10;19.80;99.90
20366;DHT22;10341;49.894;8.822;2023-08-24T06:49:29;20.00;99.90
20366;DHT22;10341;49.894;8.822;2023-08-24T06:54:49;20.00;99.90
20366;DHT22;10341;49.894;8.822;2023-08-24T07:00:12;19.90;99.90
20366;DHT22;10341;49.894;8.822;2023-08-24T07:05:34;19.80;99.90
20366;DHT22;10341;49.894;8.822;2023-08-24T07:10:53;19.60;99.90
20366;DHT22;10341;49.894;8.822;2023-08-24T07:16:13;19.60;99.90
20366;DHT22;10341;49.894;8.822;2023-08-24T07:21:32;19.80;99.90
20366;DHT22;10341;49.894;8.822;2023-08-24T07:26:55;20.20;99.90
20366;DHT22;10341;49.894;8.822;2023-08-24T07:32:14;20.70;99.90
20366;DHT22;10341;49.894;8.822;2023-08-24T07:37:34;21.20;99.90
20366;DHT22;10341;49.894;8.822;2023-08-24T07:42:54;21.70;99.90
20366;DHT22;10341;49.894;8.822;2023-08-24T07:48:16;21.90;99.90
20366;DHT22;10341;49.894;8.822;2023-08-24T07:53:36;22.20;99.90
20366;DHT22;10341;49.894;8.822;2023-08-24T07:58:55;22.30;99.90
20366;DHT22;10341;49.894;8.822;2023-08-24T08:04:15;21.80;99.90
20366;DHT22;10341;49.894;8.822;2023-08-24T08:09:36;22.00;99.90
20366;DHT22;10341;49.894;8.822;2023-08-24T08:14:55;22.30;99.90
20366;DHT22;10341;49.894;8.822;2023-08-24T08:20:15;22.30;99.90
20366;DHT22;10341;49.894;8.822;2023-08-24T08:25:35;22.00;99.90
20366;DHT22;10341;49.894;8.822;2023-08-24T08:52:39;22.60;99.90
20366;DHT22;10341;49.894;8.822;2023-08-24T08:58:00;24.00;99.90
20366;DHT22;10341;49.894;8.822;2023-08-24T09:03:21;23.90;99.90
20366;DHT22;10341;49.894;8.822;2023-08-24T09:08:41;24.20;99.90
20366;DHT22;10341;49.894;8.822;2023-08-24T09:14:01;24.50;99.90
20366;DHT22;10341;49.894;8.822;2023-08-24T09:19:28;24.80;99.90
20366;DHT22;10341;49.894;8.822;2023-08-24T09:24:48;25.70;99.90
20366;DHT22;10341;49.894;8.822;2023-08-24T09:30:09;29.90;99.90
20366;DHT22;10341;49.894;8.822;2023-08-24T09:35:34;32.50;99.90
20366;DHT22;10341;49.894;8.822;2023-08-24T09:40:56;33.30;99.20
20366;DHT22;10341;49.894;8.822;2023-08-24T09:46:18;32.90;96.00
20366;DHT22;10341;49.894;8.822;2023-08-24T09:51:40;31.80;97.10
20366;DHT22;10341;49.894;8.822;2023-08-24T09:57:01;32.10;97.30
20366;DHT22;10341;49.894;8.822;2023-08-24T10:02:23;35.20;93.50
20366;DHT22;10341;49.894;8.822;2023-08-24T10:07:45;36.50;88.00
20366;DHT22;10341;49.894;8.822;2023-08-24T10:13:10;36.60;86.20
20366;DHT22;10341;49.894;8.822;2023-08-24T10:18:34;36.40;83.50
20366;DHT22;10341;49.894;8.822;2023-08-24T10:23:56;34.70;83.20
20366;DHT22;10341;49.894;8.822;2023-08-24T10:29:16;33.50;87.60
20366;DHT22;10341;49.894;8.822;2023-08-24T10:34:36;33.60;84.40
20366;DHT22;10341;49.894;8.822;2023-08-24T10:39:56;35.50;83.20
20366;DHT22;10341;49.894;8.822;2023-08-24T10:45:15;35.20;83.00
20366;DHT22;10341;49.894;8.822;2023-08-24T10:50:42;35.30;80.60
20366;DHT22;10341;49.894;8.822;2023-08-24T10:56:11;34.10;82.20
20366;DHT22;10341;49.894;8.822;2023-08-24T11:01:32;33.20;85.50
20366;DHT22;10341;49.894;8.822;2023-08-24T11:06:52;34.10;85.90
20366;DHT22;10341;49.894;8.822;2023-08-24T11:12:12;33.40;85.30
20366;DHT22;10341;49.894;8.822;2023-08-24T11:17:32;33.10;86.50
20366;DHT22;10341;49.894;8.822;2023-08-24T11:22:55;33.00;85.80
20366;DHT22;10341;49.894;8.822;2023-08-24T11:28:19;33.80;86.70
20366;DHT22;10341;49.894;8.822;2023-08-24T11:33:39;34.90;84.40
20366;DHT22;10341;49.894;8.822;2023-08-24T11:38:59;35.70;81.50
20366;DHT22;10341;49.894;8.822;2023-08-24T11:44:18;35.60;82.30
20366;DHT22;10341;49.894;8.822;2023-08-24T11:49:37;38.00;79.90
20366;DHT22;10341;49.894;8.822;2023-08-24T11:55:00;38.00;76.50
20366;DHT22;10341;49.894;8.822;2023-08-24T12:00:21;36.50;77.50
20366;DHT22;10341;49.894;8.822;2023-08-24T12:05:40;34.80;80.20
20366;DHT22;10341;49.894;8.822;2023-08-24T12:11:00;34.80;83.10
20366;DHT22;10341;49.894;8.822;2023-08-24T12:16:21;34.60;84.00
20366;DHT22;10341;49.894;8.822;2023-08-24T12:21:43;33.40;85.80
20366;DHT22;10341;49.894;8.822;2023-08-24T12:27:03;33.70;85.80
20366;DHT22;10341;49.894;8.822;2023-08-24T12:32:23;32.70;86.60
20366;DHT22;10341;49.894;8.822;2023-08-24T12:37:44;32.30;90.70
20366;DHT22;10341;49.894;8.822;2023-08-24T12:43:04;32.70;90.80
20366;DHT22;10341;49.894;8.822;2023-08-24T12:48:23;32.80;90.30
20366;DHT22;10341;49.894;8.822;2023-08-24T12:53:42;33.40;89.10
20366;DHT22;10341;49.894;8.822;2023-08-24T12:59:02;34.20;87.10
20366;DHT22;10341;49.894;8.822;2023-08-24T13:04:21;34.50;85.90
20366;DHT22;10341;49.894;8.822;2023-08-24T13:09:40;34.20;88.20
20366;DHT22;10341;49.894;8.822;2023-08-24T13:14:59;34.30;85.90
20366;DHT22;10341;49.894;8.822;2023-08-24T13:20:18;34.80;85.00
20366;DHT22;10341;49.894;8.822;2023-08-24T13:25:37;34.40;86.10
20366;DHT22;10341;49.894;8.822;2023-08-24T13:30:56;34.30;85.10
20366;DHT22;10341;49.894;8.822;2023-08-24T13:36:15;33.60;88.20
20366;DHT22;10341;49.894;8.822;2023-08-24T13:41:34;33.80;86.40
20366;DHT22;10341;49.894;8.822;2023-08-24T13:46:54;33.70;87.00
20366;DHT22;10341;49.894;8.822;2023-08-24T13:52:13;33.30;88.20
20366;DHT22;10341;49.894;8.822;2023-08-24T13:57:32;33.00;91.20
20366;DHT22;10341;49.894;8.822;2023-08-24T14:02:51;32.90;92.10
20366;DHT22;10341;49.894;8.822;2023-08-24T14:08:10;34.10;91.80
20366;DHT22;10341;49.894;8.822;2023-08-24T14:13:30;35.70;89.10
20366;DHT22;10341;49.894;8.822;2023-08-24T14:18:51;36.10;87.10
20366;DHT22;10341;49.894;8.822;2023-08-24T14:24:11;34.70;85.90
20366;DHT22;10341;49.894;8.822;2023-08-24T14:29:30;33.50;90.10
20366;DHT22;10341;49.894;8.822;2023-08-24T14:34:50;32.80;91.80
20366;DHT22;10341;49.894;8.822;2023-08-24T14:40:09;32.60;91.60
20366;DHT22;10341;49.894;8.822;2023-08-24T14:45:29;31.90;93.00
20366;DHT22;10341;49.894;8.822;2023-08-24T14:50:49;31.20;94.70
20366;DHT22;10341;49.894;8.822;2023-08-24T14:56:08;30.30;98.30
20366;DHT22;10341;49.894;8.822;2023-08-24T15:01:28;29.70;99.90
20366;DHT22;10341;49.894;8.822;2023-08-24T15:06:48;29.10;99.90
20366;DHT22;10341;49.894;8.822;2023-08-24T15:12:07;28.60;99.90
20366;DHT22;10341;49.894;8.822;2023-08-24T15:17:30;28.10;99.90
20366;DHT22;10341;49.894;8.822;2023-08-24T15:22:49;27.60;99.90
20366;DHT22;10341;49.894;8.822;2023-08-24T15:28:08;27.10;99.90
20366;DHT22;10341;49.894;8.822;2023-08-24T15:33:27;26.60;99.90
20366;DHT22;10341;49.894;8.822;2023-08-24T15:38:47;26.10;99.90
20366;DHT22;10341;49.894;8.822;2023-08-24T15:44:06;25.70;99.90
20366;DHT22;10341;49.894;8.822;2023-08-24T15:49:25;26.00;99.90
20366;DHT22;10341;49.894;8.822;2023-08-24T15:54:45;26.10;99.90
20366;DHT22;10341;49.894;8.822;2023-08-24T16:00:05;26.20;99.90
20366;DHT22;10341;49.894;8.822;2023-08-24T16:05:33;26.30;99.90
20366;DHT22;10341;49.894;8.822;2023-08-24T16:10:56;26.20;99.90
20366;DHT22;10341;49.894;8.822;2023-08-24T16:16:16;26.20;99.90
20366;DHT22;10341;49.894;8.822;2023-08-24T16:21:35;26.20;99.90
20366;DHT22;10341;49.894;8.822;2023-08-24T16:26:54;26.30;99.90
20366;DHT22;10341;49.894;8.822;2023-08-24T16:32:13;26.50;99.90
20366;DHT22;10341;49.894;8.822;2023-08-24T16:37:32;26.50;99.90
20366;DHT22;10341;49.894;8.822;2023-08-24T16:42:51;26.30;99.90
20366;DHT22;10341;49.894;8.822;2023-08-24T16:48:10;26.20;99.90
20366;DHT22;10341;49.894;8.822;2023-08-24T16:53:30;25.90;99.90
20366;DHT22;10341;49.894;8.822;2023-08-24T16:58:50;25.70;99.90
20366;DHT22;10341;49.894;8.822;2023-08-24T17:04:10;25.60;99.90
20366;DHT22;10341;49.894;8.822;2023-08-24T17:09:29;25.40;99.90
20366;DHT22;10341;49.894;8.822;2023-08-24T17:14:48;25.20;99.90
20366;DHT22;10341;49.894;8.822;2023-08-24T17:20:07;25.00;99.90
20366;DHT22;10341;49.894;8.822;2023-08-24T17:25:26;24.90;99.90
20366;DHT22;10341;49.894;8.822;2023-08-24T17:30:46;24.60;99.90
20366;DHT22;10341;49.894;8.822;2023-08-24T17:36:08;24.30;99.90
20366;DHT22;10341;49.894;8.822;2023-08-24T17:41:27;23.90;99.90
20366;DHT22;10341;49.894;8.822;2023-08-24T17:46:46;23.70;99.90
20366;DHT22;10341;49.894;8.822;2023-08-24T17:52:05;23.40;99.90
20366;DHT22;10341;49.894;8.822;2023-08-24T17:57:25;22.90;99.90
20366;DHT22;10341;49.894;8.822;2023-08-24T18:02:44;22.30;99.90
20366;DHT22;10341;49.894;8.822;2023-08-24T18:08:04;22.00;99.90
20366;DHT22;10341;49.894;8.822;2023-08-24T18:13:23;21.70;99.90
20366;DHT22;10341;49.894;8.822;2023-08-24T18:18:42;21.40;99.90
20366;DHT22;10341;49.894;8.822;2023-08-24T18:24:01;21.30;99.90
20366;DHT22;10341;49.894;8.822;2023-08-24T18:29:21;21.40;99.90
20366;DHT22;10341;49.894;8.822;2023-08-24T18:34:41;21.40;99.90
20366;DHT22;10341;49.894;8.822;2023-08-24T18:40:00;21.20;99.90
20366;DHT22;10341;49.894;8.822;2023-08-24T18:45:20;21.10;99.90
20366;DHT22;10341;49.894;8.822;2023-08-24T18:50:40;21.00;99.90
20366;DHT22;10341;49.894;8.822;2023-08-24T18:56:00;20.80;99.90
20366;DHT22;10341;49.894;8.822;2023-08-24T19:01:19;20.70;99.90
20366;DHT22;10341;49.894;8.822;2023-08-24T19:06:38;20.70;99.90
20366;DHT22;10341;49.894;8.822;2023-08-24T19:11:57;20.60;99.90
20366;DHT22;10341;49.894;8.822;2023-08-24T19:17:17;20.60;99.90
20366;DHT22;10341;49.894;8.822;2023-08-24T19:22:36;20.60;99.90
20366;DHT22;10341;49.894;8.822;2023-08-24T19:27:56;20.60;99.90
20366;DHT22;10341;49.894;8.822;2023-08-24T19:33:15;20.60;99.90
20366;DHT22;10341;49.894;8.822;2023-08-24T19:38:34;20.60;99.90
20366;DHT22;10341;49.894;8.822;2023-08-24T19:43:55;20.60;99.90
20366;DHT22;10341;49.894;8.822;2023-08-24T19:49:13;20.50;99.90
20366;DHT22;10341;49.894;8.822;2023-08-24T19:54:33;20.50;99.90
20366;DHT22;10341;49.894;8.822;2023-08-24T19:59:52;20.50;99.90
20366;DHT22;10341;49.894;8.822;2023-08-24T20:05:11;20.40;99.90
20366;DHT22;10341;49.894;8.822;2023-08-24T20:10:30;20.30;99.90
20366;DHT22;10341;49.894;8.822;2023-08-24T20:15:50;20.30;99.90
20366;DHT22;10341;49.894;8.822;2023-08-24T20:21:09;20.20;99.90
20366;DHT22;10341;49.894;8.822;2023-08-24T20:26:29;20.00;99.90
20366;DHT22;10341;49.894;8.822;2023-08-24T20:31:48;20.00;99.90
20366;DHT22;10341;49.894;8.822;2023-08-24T20:37:07;19.90;99.90
20366;DHT22;10341;49.894;8.822;2023-08-24T20:42:26;19.80;99.90
20366;DHT22;10341;49.894;8.822;2023-08-24T20:47:46;19.70;99.90
20366;DHT22;10341;49.894;8.822;2023-08-24T20:53:06;19.60;99.90
20366;DHT22;10341;49.894;8.822;2023-08-24T20:58:26;19.60;99.90
20366;DHT22;10341;49.894;8.822;2023-08-24T21:03:45;19.50;99.90
20366;DHT22;10341;49.894;8.822;2023-08-24T21:09:05;19.50;99.90
20366;DHT22;10341;49.894;8.822;2023-08-24T21:14:24;19.50;99.90
20366;DHT22;10341;49.894;8.822;2023-08-24T21:19:43;19.50;99.90
20366;DHT22;10341;49.894;8.822;2023-08-24T21:25:04;19.50;99.90
20366;DHT22;10341;49.894;8.822;2023-08-24T21:30:24;19.50;99.90
20366;DHT22;10341;49.894;8.822;2023-08-24T21:35:44;19.50;99.90
20366;DHT22;10341;49.894;8.822;2023-08-24T21:41:03;19.50;99.90
20366;DHT22;10341;49.894;8.822;2023-08-24T21:46:23;19.50;99.90
20366;DHT22;10341;49.894;8.822;2023-08-24T21:51:42;19.40;99.90
20366;DHT22;10341;49.894;8.822;2023-08-24T21:57:01;19.40;99.90
20366;DHT22;10341;49.894;8.822;2023-08-24T22:02:21;19.40;99.90
20366;DHT22;10341;49.894;8.822;2023-08-24T22:07:40;19.40;99.90
20366;DHT22;10341;49.894;8.822;2023-08-24T22:12:59;19.40;99.90
20366;DHT22;10341;49.894;8.822;2023-08-24T22:18:20;19.30;99.90
20366;DHT22;10341;49.894;8.822;2023-08-24T22:23:39;19.30;99.90
20366;DHT22;10341;49.894;8.822;2023-08-24T22:28:58;19.30;99.90
20366;DHT22;10341;49.894;8.822;2023-08-24T22:34:18;19.30;99.90
20366;DHT22;10341;49.894;8.822;2023-08-24T22:39:38;19.30;99.90
20366;DHT22;10341;49.894;8.822;2023-08-24T22:44:57;19.20;99.90
20366;DHT22;10341;49.894;8.822;2023-08-24T22:50:17;19.10;99.90
20366;DHT22;10341;49.894;8.822;2023-08-24T22:55:36;19.10;99.90
20366;DHT22;10341;49.894;8.822;2023-08-24T23:00:55;19.00;99.90
20366;DHT22;10341;49.894;8.822;2023-08-24T23:06:19;19.00;99.90
20366;DHT22;10341;49.894;8.822;2023-08-24T23:11:38;19.00;99.90
20366;DHT22;10341;49.894;8.822;2023-08-24T23:16:57;18.90;99.90
20366;DHT22;10341;49.894;8.822;2023-08-24T23:22:16;18.80;99.90
20366;DHT22;10341;49.894;8.822;2023-08-24T23:27:36;18.80;99.90
20366;DHT22;10341;49.894;8.822;2023-08-24T23:32:55;18.70;99.90
20366;DHT22;10341;49.894;8.822;2023-08-24T23:38:14;18.60;99.90
20366;DHT22;10341;49.894;8.822;2023-08-24T23:43:34;18.50;99.90
20366;DHT22;10341;49.894;8.822;2023-08-24T23:48:54;18.40;99.90
20366;DHT22;10341;49.894;8.822;2023-08-24T23:54:13;18.40;99.90
20366;DHT22;10341;49.894;8.822;2023-08-24T23:59:32;18.40;99.90
